General Juan N Alvarez International Airport
MMAA : now visible

Airfield :











YOU CAN JOIN US ON...

 
LOGIN :

Register | Disclaimer

   EN    FR    IT 

 









Legend :    VFR   Marginal VFR   IFR   Intensive IFR   Very Intensive IFR
Visi :
Ceiling :
>= 8 km
>= 3000ft
5 to 8 km
1000 to 3000 ft
1500m to 5 km
500 to 1000 ft
800 to 1500m
200 to 500 ft
< 800m
< 200 ft
Symbols :   Thunderstorms  Fog  Heavy snow  Heavy precipitations  Wind > 20 kt






- Airport Elevation : 16 ft
- IATA code : ACA


MMAA - General Juan N Alvarez International

CURRENT METAR :
  • 141547Z 35003KT 8SM BKN300 28/22 A2996 RMK 8/002 ISOL AC

EXPIRED METARs :
  • 141344Z 34005KT 8SM BKN300 26/22 A2993 RMK 8/002 ISOL AC DSNT TCU S

TAF TAF MMAA
Valid from the 14 at 12:00 until the 15 at 18:00 UTC


141006Z 1412/1518 34006KT P6SM SCT300 TX30/1421Z TN24/1412Z
FM141800 25008KT P6SM SCT020 BKN090 BKN250
PROB40 1422/1502 6SM -RA
FM150700 02005KT P6SM SCT090 BKN250
BECMG 1511/1513 02004KT



MET'MAP, your aeronautical weather chart ! - Copyright ORBIFLY December 2007 - Disclaimer

ORBIFLY MET'MAP TEAM :

Programming & Development : Alexandra Zaïnal
Concept & Development : Baudouin d'Aumeries
Co-Development & Prog : Marc-Olivier Méhu
Technical & hardware support : Manuel Goepfert

Contact : metmap@orbifly.com




SOURCES & CREDITS :

   NOAA       Earth
Advisory